Climatologie pour Saint-Brevin les Pins
Jour • Résumé pour décembre 8, 2017 Système :  Mixte    Anglais   Métrique
« - 1 jour
+ 1 jour »
Jour Semaine Mois Année Personnalisé
  Maximum : Minimum : Moyenne :
Température sous abri : 50.4 °F /  10.2 °C 36.0 °F /  2.2 °C 43.3 °F /  6.3 °C
Point de rosée : 43.3 °F /  6.3 °C 32.9 °F /  0.5 °C 38.1 °F /  3.4 °C
Humidité : 95% 62% 82%
Vitesse du vent : 16.0mph /  25.7km/h - 4.9mph /  7.9km/h
Rafale : 20.0mph /  32.2km/h - -
Direction - - NW
Pression : 30.31 in /  1026.3 hPa 30.14 in /  1020.5 hPa -
Précipitations : 0.00 in /  0 mm    
Historical Graphs
 
 
Tableau de données pour décembre 8, 2017
Heure Tempé Pt rosée Pression Vent Vitesse Rafale Humidité Taux pluie (/hr) Soleil
00:15 43.7 °F /  6.5 °C 41.7 °F /  5.4 °C 30.14in /  1020.5hPa WNW 2.0mph /  3.2km/h 7.0mph /  11.3km/h 93% 0.00in /  0mm 0 W/m2
00:20 43.5 °F /  6.4 °C 41.9 °F /  5.5 °C 30.14in /  1020.5hPa NW 3.0mph /  4.8km/h 7.0mph /  11.3km/h 94% 0.00in /  0mm 0 W/m2
00:25 43.9 °F /  6.6 °C 42.3 °F /  5.7 °C 30.15in /  1020.9hPa NW 5.0mph /  8km/h 10.0mph /  16.1km/h 94% 0.00in /  0mm 0 W/m2
00:35 44.8 °F /  7.1 °C 43.3 °F /  6.3 °C 30.15in /  1020.9hPa NW 5.0mph /  8km/h 9.0mph /  14.5km/h 95% 0.00in /  0mm 0 W/m2
00:40 44.8 °F /  7.1 °C 43.2 °F /  6.2 °C 30.15in /  1020.9hPa WNW 2.0mph /  3.2km/h 9.0mph /  14.5km/h 94% 0.00in /  0mm 0 W/m2
00:45 44.6 °F /  7 °C 43.0 °F /  6.1 °C 30.15in /  1020.9hPa WNW 4.0mph /  6.4km/h 9.0mph /  14.5km/h 94% 0.00in /  0mm 0 W/m2
01:00 43.9 °F /  6.6 °C 42.3 °F /  5.7 °C 30.15in /  1020.9hPa Calm   7.0mph /  11.3km/h 94% 0.00in /  0mm 0 W/m2
01:05 43.9 °F /  6.6 °C 42.3 °F /  5.7 °C 30.15in /  1020.9hPa NW 2.0mph /  3.2km/h 8.0mph /  12.9km/h 94% 0.00in /  0mm 0 W/m2
01:20 43.9 °F /  6.6 °C 42.3 °F /  5.7 °C 30.15in /  1020.9hPa NNW 6.0mph /  9.7km/h 9.0mph /  14.5km/h 94% 0.00in /  0mm 0 W/m2
01:25 43.9 °F /  6.6 °C 42.3 °F /  5.7 °C 30.15in /  1020.9hPa WNW 6.0mph /  9.7km/h 9.0mph /  14.5km/h 94% 0.00in /  0mm 0 W/m2
01:30 44.1 °F /  6.7 °C 42.4 °F /  5.8 °C 30.15in /  1020.9hPa WNW 1.0mph /  1.6km/h 9.0mph /  14.5km/h 94% 0.00in /  0mm 0 W/m2
01:35 44.1 °F /  6.7 °C 42.4 °F /  5.8 °C 30.15in /  1020.9hPa NW 4.0mph /  6.4km/h 8.0mph /  12.9km/h 94% 0.00in /  0mm 0 W/m2
01:40 43.9 °F /  6.6 °C 42.3 °F /  5.7 °C 30.14in /  1020.5hPa WNW 3.0mph /  4.8km/h 8.0mph /  12.9km/h 94% 0.00in /  0mm 0 W/m2
01:45 43.9 °F /  6.6 °C 41.9 °F /  5.5 °C 30.15in /  1020.9hPa NW 4.0mph /  6.4km/h 8.0mph /  12.9km/h 93% 0.00in /  0mm 0 W/m2
01:55 43.5 °F /  6.4 °C 41.7 °F /  5.4 °C 30.15in /  1020.9hPa WNW 7.0mph /  11.3km/h 7.0mph /  11.3km/h 93% 0.00in /  0mm 0 W/m2
02:00 43.5 °F /  6.4 °C 41.7 °F /  5.4 °C 30.15in /  1020.9hPa WNW 4.0mph /  6.4km/h 8.0mph /  12.9km/h 93% 0.00in /  0mm 0 W/m2
02:05 43.5 °F /  6.4 °C 41.7 °F /  5.4 °C 30.15in /  1020.9hPa WNW 2.0mph /  3.2km/h 8.0mph /  12.9km/h 93% 0.00in /  0mm 0 W/m2
02:10 43.5 °F /  6.4 °C 41.7 °F /  5.4 °C 30.16in /  1021.2hPa NW 3.0mph /  4.8km/h 8.0mph /  12.9km/h 93% 0.00in /  0mm 0 W/m2
02:15 43.7 °F /  6.5 °C 41.7 °F /  5.4 °C 30.16in /  1021.2hPa NW 7.0mph /  11.3km/h 8.0mph /  12.9km/h 93% 0.00in /  0mm 0 W/m2
02:20 43.9 °F /  6.6 °C 41.9 °F /  5.5 °C 30.16in /  1021.2hPa NW 6.0mph /  9.7km/h 8.0mph /  12.9km/h 93% 0.00in /  0mm 0 W/m2
02:25 44.2 °F /  6.8 °C 42.6 °F /  5.9 °C 30.15in /  1020.9hPa WNW 4.0mph /  6.4km/h 9.0mph /  14.5km/h 94% 0.00in /  0mm 0 W/m2
02:35 45.0 °F /  7.2 °C 43.0 °F /  6.1 °C 30.16in /  1021.2hPa NW 4.0mph /  6.4km/h 14.0mph /  22.5km/h 93% 0.00in /  0mm 0 W/m2
02:40 45.1 °F /  7.3 °C 43.0 °F /  6.1 °C 30.16in /  1021.2hPa NW 5.0mph /  8km/h 11.0mph /  17.7km/h 92% 0.00in /  0mm 0 W/m2
02:45 45.3 °F /  7.4 °C 43.2 °F /  6.2 °C 30.16in /  1021.2hPa WNW 4.0mph /  6.4km/h 11.0mph /  17.7km/h 92% 0.00in /  0mm 0 W/m2
02:50 45.5 °F /  7.5 °C 43.3 °F /  6.3 °C 30.16in /  1021.2hPa NNW 4.0mph /  6.4km/h 9.0mph /  14.5km/h 92% 0.00in /  0mm 0 W/m2
02:55 45.7 °F /  7.6 °C 43.2 °F /  6.2 °C 30.17in /  1021.6hPa NNW 7.0mph /  11.3km/h 9.0mph /  14.5km/h 91% 0.00in /  0mm 0 W/m2
03:05 45.5 °F /  7.5 °C 42.8 °F /  6 °C 30.17in /  1021.6hPa NW 6.0mph /  9.7km/h 10.0mph /  16.1km/h 90% 0.00in /  0mm 0 W/m2
03:15 45.3 °F /  7.4 °C 42.3 °F /  5.7 °C 30.17in /  1021.6hPa WNW 2.0mph /  3.2km/h 11.0mph /  17.7km/h 89% 0.00in /  0mm 0 W/m2
03:20 45.1 °F /  7.3 °C 42.1 °F /  5.6 °C 30.17in /  1021.6hPa WNW 3.0mph /  4.8km/h 10.0mph /  16.1km/h 89% 0.00in /  0mm 0 W/m2
03:25 45.0 °F /  7.2 °C 41.7 °F /  5.4 °C 30.17in /  1021.6hPa West 4.0mph /  6.4km/h 10.0mph /  16.1km/h 88% 0.00in /  0mm 0 W/m2
03:35 44.8 °F /  7.1 °C 41.0 °F /  5 °C 30.17in /  1021.6hPa WNW 3.0mph /  4.8km/h 10.0mph /  16.1km/h 87% 0.00in /  0mm 0 W/m2
03:50 44.4 °F /  6.9 °C 40.5 °F /  4.7 °C 30.17in /  1021.6hPa NW 5.0mph /  8km/h 9.0mph /  14.5km/h 86% 0.00in /  0mm 0 W/m2
03:55 44.2 °F /  6.8 °C 40.5 °F /  4.7 °C 30.17in /  1021.6hPa NW 4.0mph /  6.4km/h 8.0mph /  12.9km/h 86% 0.00in /  0mm 0 W/m2
04:00 44.2 °F /  6.8 °C 40.3 °F /  4.6 °C 30.17in /  1021.6hPa NW 3.0mph /  4.8km/h 10.0mph /  16.1km/h 86% 0.00in /  0mm 0 W/m2
04:05 44.1 °F /  6.7 °C 40.1 °F /  4.5 °C 30.17in /  1021.6hPa WNW 1.0mph /  1.6km/h 10.0mph /  16.1km/h 86% 0.00in /  0mm 0 W/m2
04:10 44.1 °F /  6.7 °C 40.1 °F /  4.5 °C 30.17in /  1021.6hPa WNW 7.0mph /  11.3km/h 9.0mph /  14.5km/h 86% 0.00in /  0mm 0 W/m2
04:20 43.9 °F /  6.6 °C 39.9 °F /  4.4 °C 30.17in /  1021.6hPa NW 3.0mph /  4.8km/h 10.0mph /  16.1km/h 86% 0.00in /  0mm 0 W/m2
04:30 43.5 °F /  6.4 °C 39.9 °F /  4.4 °C 30.17in /  1021.6hPa NW 5.0mph /  8km/h 10.0mph /  16.1km/h 87% 0.00in /  0mm 0 W/m2
04:35 43.5 °F /  6.4 °C 39.9 °F /  4.4 °C 30.17in /  1021.6hPa WNW 3.0mph /  4.8km/h 10.0mph /  16.1km/h 87% 0.00in /  0mm 0 W/m2
04:40 43.3 °F /  6.3 °C 39.7 °F /  4.3 °C 30.17in /  1021.6hPa WNW 4.0mph /  6.4km/h 10.0mph /  16.1km/h 87% 0.00in /  0mm 0 W/m2
04:45 43.3 °F /  6.3 °C 40.1 °F /  4.5 °C 30.17in /  1021.6hPa NNW 5.0mph /  8km/h 9.0mph /  14.5km/h 88% 0.00in /  0mm 0 W/m2
04:50 43.3 °F /  6.3 °C 40.1 °F /  4.5 °C 30.17in /  1021.6hPa WNW 5.0mph /  8km/h 9.0mph /  14.5km/h 88% 0.00in /  0mm 0 W/m2
04:55 43.3 °F /  6.3 °C 40.1 °F /  4.5 °C 30.17in /  1021.6hPa NNW 8.0mph /  12.9km/h 10.0mph /  16.1km/h 88% 0.00in /  0mm 0 W/m2
05:05 43.3 °F /  6.3 °C 39.9 °F /  4.4 °C 30.17in /  1021.6hPa NW 6.0mph /  9.7km/h 10.0mph /  16.1km/h 88% 0.00in /  0mm 0 W/m2
05:10 43.3 °F /  6.3 °C 39.9 °F /  4.4 °C 30.18in /  1021.9hPa NW 3.0mph /  4.8km/h 9.0mph /  14.5km/h 88% 0.00in /  0mm 0 W/m2
05:15 43.3 °F /  6.3 °C 39.9 °F /  4.4 °C 30.18in /  1021.9hPa WNW 2.0mph /  3.2km/h 8.0mph /  12.9km/h 88% 0.00in /  0mm 0 W/m2
05:25 43.2 °F /  6.2 °C 40.1 °F /  4.5 °C 30.18in /  1021.9hPa WNW 2.0mph /  3.2km/h 11.0mph /  17.7km/h 89% 0.00in /  0mm 0 W/m2
05:30 43.3 °F /  6.3 °C 40.3 °F /  4.6 °C 30.18in /  1021.9hPa WNW 8.0mph /  12.9km/h 13.0mph /  20.9km/h 89% 0.00in /  0mm 0 W/m2
05:35 43.3 °F /  6.3 °C 40.3 °F /  4.6 °C 30.18in /  1021.9hPa NW 4.0mph /  6.4km/h 13.0mph /  20.9km/h 89% 0.00in /  0mm 0 W/m2
05:40 43.3 °F /  6.3 °C 40.3 °F /  4.6 °C 30.18in /  1021.9hPa NW 4.0mph /  6.4km/h 12.0mph /  19.3km/h 89% 0.00in /  0mm 0 W/m2
05:45 43.3 °F /  6.3 °C 40.5 °F /  4.7 °C 30.18in /  1021.9hPa WNW 8.0mph /  12.9km/h 14.0mph /  22.5km/h 89% 0.00in /  0mm 0 W/m2
05:50 43.3 °F /  6.3 °C 40.5 °F /  4.7 °C 30.18in /  1021.9hPa NW 7.0mph /  11.3km/h 14.0mph /  22.5km/h 89% 0.00in /  0mm 0 W/m2
05:55 43.3 °F /  6.3 °C 40.1 °F /  4.5 °C 30.18in /  1021.9hPa WNW 9.0mph /  14.5km/h 13.0mph /  20.9km/h 88% 0.00in /  0mm 0 W/m2
06:00 43.3 °F /  6.3 °C 40.1 °F /  4.5 °C 30.19in /  1022.2hPa NNW 2.0mph /  3.2km/h 11.0mph /  17.7km/h 88% 0.00in /  0mm 0 W/m2
06:05 43.3 °F /  6.3 °C 40.1 °F /  4.5 °C 30.19in /  1022.2hPa NW 5.0mph /  8km/h 11.0mph /  17.7km/h 88% 0.00in /  0mm 0 W/m2
06:10 43.3 °F /  6.3 °C 39.9 °F /  4.4 °C 30.19in /  1022.2hPa NW 6.0mph /  9.7km/h 9.0mph /  14.5km/h 88% 0.00in /  0mm 0 W/m2
06:20 43.2 °F /  6.2 °C 39.9 °F /  4.4 °C 30.19in /  1022.2hPa NW 6.0mph /  9.7km/h 9.0mph /  14.5km/h 88% 0.00in /  0mm 0 W/m2
06:30 43.0 °F /  6.1 °C 39.6 °F /  4.2 °C 30.19in /  1022.2hPa NW 5.0mph /  8km/h 9.0mph /  14.5km/h 88% 0.00in /  0mm 0 W/m2
06:35 42.8 °F /  6 °C 39.6 °F /  4.2 °C 30.19in /  1022.2hPa NW 2.0mph /  3.2km/h 9.0mph /  14.5km/h 88% 0.00in /  0mm 0 W/m2
06:40 42.6 °F /  5.9 °C 39.4 °F /  4.1 °C 30.19in /  1022.2hPa WNW 7.0mph /  11.3km/h 8.0mph /  12.9km/h 88% 0.00in /  0mm 0 W/m2
06:45 42.4 °F /  5.8 °C 39.2 °F /  4 °C 30.19in /  1022.2hPa NW 2.0mph /  3.2km/h 8.0mph /  12.9km/h 88% 0.00in /  0mm 0 W/m2
07:00 42.1 °F /  5.6 °C 38.8 °F /  3.8 °C 30.20in /  1022.6hPa NW 1.0mph /  1.6km/h 6.0mph /  9.7km/h 88% 0.00in /  0mm 0 W/m2
07:10 41.7 °F /  5.4 °C 38.5 °F /  3.6 °C 30.21in /  1022.9hPa NW 3.0mph /  4.8km/h 7.0mph /  11.3km/h 88% 0.00in /  0mm 0 W/m2
07:15 41.5 °F /  5.3 °C 38.3 °F /  3.5 °C 30.21in /  1022.9hPa NNW 3.0mph /  4.8km/h 7.0mph /  11.3km/h 88% 0.00in /  0mm 0 W/m2
07:20 41.4 °F /  5.2 °C 38.3 °F /  3.5 °C 30.21in /  1022.9hPa NW 4.0mph /  6.4km/h 8.0mph /  12.9km/h 89% 0.00in /  0mm 0 W/m2
07:25 41.2 °F /  5.1 °C 38.1 °F /  3.4 °C 30.21in /  1022.9hPa NW 3.0mph /  4.8km/h 8.0mph /  12.9km/h 89% 0.00in /  0mm 0 W/m2
07:30 41.0 °F /  5 °C 37.9 °F /  3.3 °C 30.21in /  1022.9hPa WNW 4.0mph /  6.4km/h 7.0mph /  11.3km/h 89% 0.00in /  0mm 0 W/m2
07:35 40.8 °F /  4.9 °C 38.1 °F /  3.4 °C 30.21in /  1022.9hPa NW 5.0mph /  8km/h 7.0mph /  11.3km/h 90% 0.00in /  0mm 0 W/m2
07:40 40.8 °F /  4.9 °C 38.1 °F /  3.4 °C 30.21in /  1022.9hPa Calm   7.0mph /  11.3km/h 90% 0.00in /  0mm 0 W/m2
07:45 40.6 °F /  4.8 °C 37.9 °F /  3.3 °C 30.21in /  1022.9hPa WNW 4.0mph /  6.4km/h 7.0mph /  11.3km/h 90% 0.00in /  0mm 0 W/m2
07:50 40.6 °F /  4.8 °C 37.9 °F /  3.3 °C 30.21in /  1022.9hPa NNW 2.0mph /  3.2km/h 7.0mph /  11.3km/h 90% 0.00in /  0mm 0 W/m2
07:55 40.5 °F /  4.7 °C 37.8 °F /  3.2 °C 30.21in /  1022.9hPa NW 2.0mph /  3.2km/h 6.0mph /  9.7km/h 90% 0.00in /  0mm 0 W/m2
08:00 40.3 °F /  4.6 °C 37.6 °F /  3.1 °C 30.21in /  1022.9hPa NW 3.0mph /  4.8km/h 6.0mph /  9.7km/h 90% 0.00in /  0mm 0 W/m2
08:10 40.1 °F /  4.5 °C 37.8 °F /  3.2 °C 30.22in /  1023.2hPa NW 3.0mph /  4.8km/h 10.0mph /  16.1km/h 91% 0.00in /  0mm 0 W/m2
08:25 40.1 °F /  4.5 °C 37.8 °F /  3.2 °C 30.22in /  1023.2hPa NW 5.0mph /  8km/h 8.0mph /  12.9km/h 91% 0.00in /  0mm 0 W/m2
08:30 40.3 °F /  4.6 °C 38.1 °F /  3.4 °C 30.22in /  1023.2hPa NW 2.0mph /  3.2km/h 10.0mph /  16.1km/h 92% 0.00in /  0mm 0 W/m2
08:35 40.3 °F /  4.6 °C 38.1 °F /  3.4 °C 30.22in /  1023.2hPa NW 6.0mph /  9.7km/h 10.0mph /  16.1km/h 92% 0.00in /  0mm 0 W/m2
08:40 40.5 °F /  4.7 °C 38.3 °F /  3.5 °C 30.22in /  1023.2hPa WNW 3.0mph /  4.8km/h 7.0mph /  11.3km/h 92% 0.00in /  0mm 0 W/m2
08:45 40.5 °F /  4.7 °C 38.3 °F /  3.5 °C 30.23in /  1023.6hPa West 4.0mph /  6.4km/h 12.0mph /  19.3km/h 92% 0.00in /  0mm 5 W/m2
08:50 40.6 °F /  4.8 °C 38.5 °F /  3.6 °C 30.23in /  1023.6hPa NW 3.0mph /  4.8km/h 12.0mph /  19.3km/h 92% 0.00in /  0mm 7 W/m2
08:55 40.6 °F /  4.8 °C 38.5 °F /  3.6 °C 30.23in /  1023.6hPa NW 5.0mph /  8km/h 11.0mph /  17.7km/h 92% 0.00in /  0mm 9 W/m2
09:00 40.8 °F /  4.9 °C 38.7 °F /  3.7 °C 30.23in /  1023.6hPa NW 4.0mph /  6.4km/h 13.0mph /  20.9km/h 92% 0.00in /  0mm 12 W/m2
09:05 40.8 °F /  4.9 °C 38.8 °F /  3.8 °C 30.23in /  1023.6hPa WNW 3.0mph /  4.8km/h 13.0mph /  20.9km/h 92% 0.00in /  0mm 14 W/m2
09:10 41.0 °F /  5 °C 38.8 °F /  3.8 °C 30.24in /  1023.9hPa NW 3.0mph /  4.8km/h 9.0mph /  14.5km/h 92% 0.00in /  0mm 18 W/m2
09:15 41.2 °F /  5.1 °C 39.0 °F /  3.9 °C 30.24in /  1023.9hPa WNW 4.0mph /  6.4km/h 9.0mph /  14.5km/h 92% 0.00in /  0mm 19 W/m2
09:20 41.2 °F /  5.1 °C 39.0 °F /  3.9 °C 30.24in /  1023.9hPa NNW 4.0mph /  6.4km/h 9.0mph /  14.5km/h 92% 0.00in /  0mm 21 W/m2
09:25 41.4 °F /  5.2 °C 39.2 °F /  4 °C 30.24in /  1023.9hPa NW 7.0mph /  11.3km/h 9.0mph /  14.5km/h 92% 0.00in /  0mm 25 W/m2
09:35 41.7 °F /  5.4 °C 39.2 °F /  4 °C 30.24in /  1023.9hPa NW 5.0mph /  8km/h 11.0mph /  17.7km/h 91% 0.00in /  0mm 28 W/m2
09:45 41.9 °F /  5.5 °C 39.4 °F /  4.1 °C 30.24in /  1023.9hPa NNW 10.0mph /  16.1km/h 10.0mph /  16.1km/h 91% 0.00in /  0mm 30 W/m2
10:00 42.4 °F /  5.8 °C 39.7 °F /  4.3 °C 30.24in /  1023.9hPa NNW 5.0mph /  8km/h 12.0mph /  19.3km/h 90% 0.00in /  0mm 35 W/m2
10:05 42.6 °F /  5.9 °C 39.6 °F /  4.2 °C 30.24in /  1023.9hPa NW 6.0mph /  9.7km/h 13.0mph /  20.9km/h 89% 0.00in /  0mm 37 W/m2
10:25 44.2 °F /  6.8 °C 39.9 °F /  4.4 °C 30.26in /  1024.6hPa NNW 5.0mph /  8km/h 15.0mph /  24.1km/h 85% 0.00in /  0mm 153 W/m2
10:30 44.6 °F /  7 °C 39.7 °F /  4.3 °C 30.27in /  1024.9hPa NW 8.0mph /  12.9km/h 15.0mph /  24.1km/h 83% 0.00in /  0mm 163 W/m2
10:35 45.0 °F /  7.2 °C 39.7 °F /  4.3 °C 30.27in /  1024.9hPa WNW 2.0mph /  3.2km/h 15.0mph /  24.1km/h 82% 0.00in /  0mm 176 W/m2
10:40 45.1 °F /  7.3 °C 39.9 °F /  4.4 °C 30.27in /  1024.9hPa NNW 7.0mph /  11.3km/h 15.0mph /  24.1km/h 82% 0.00in /  0mm 185 W/m2
10:50 45.7 °F /  7.6 °C 39.7 °F /  4.3 °C 30.27in /  1024.9hPa WNW 5.0mph /  8km/h 16.0mph /  25.7km/h 80% 0.00in /  0mm 202 W/m2
10:55 45.9 °F /  7.7 °C 39.9 °F /  4.4 °C 30.27in /  1024.9hPa WNW 2.0mph /  3.2km/h 16.0mph /  25.7km/h 80% 0.00in /  0mm 214 W/m2
11:00 46.0 °F /  7.8 °C 40.1 °F /  4.5 °C 30.27in /  1024.9hPa NW 6.0mph /  9.7km/h 12.0mph /  19.3km/h 80% 0.00in /  0mm 225 W/m2
11:05 46.2 °F /  7.9 °C 40.1 °F /  4.5 °C 30.27in /  1024.9hPa West 7.0mph /  11.3km/h 14.0mph /  22.5km/h 79% 0.00in /  0mm 236 W/m2
11:10 46.2 °F /  7.9 °C 40.1 °F /  4.5 °C 30.27in /  1024.9hPa WNW 10.0mph /  16.1km/h 15.0mph /  24.1km/h 79% 0.00in /  0mm 239 W/m2
11:25 46.6 °F /  8.1 °C 39.7 °F /  4.3 °C 30.27in /  1024.9hPa NW 12.0mph /  19.3km/h 17.0mph /  27.4km/h 77% 0.00in /  0mm 258 W/m2
11:35 46.9 °F /  8.3 °C 39.7 °F /  4.3 °C 30.27in /  1024.9hPa WNW 8.0mph /  12.9km/h 15.0mph /  24.1km/h 76% 0.00in /  0mm 267 W/m2
11:40 46.9 °F /  8.3 °C 40.1 °F /  4.5 °C 30.28in /  1025.3hPa NNW 7.0mph /  11.3km/h 15.0mph /  24.1km/h 77% 0.00in /  0mm 272 W/m2
11:45 47.1 °F /  8.4 °C 39.9 °F /  4.4 °C 30.28in /  1025.3hPa WNW 5.0mph /  8km/h 13.0mph /  20.9km/h 76% 0.00in /  0mm 281 W/m2
11:55 46.9 °F /  8.3 °C 38.8 °F /  3.8 °C 30.28in /  1025.3hPa WNW 8.0mph /  12.9km/h 18.0mph /  29km/h 73% 0.00in /  0mm 288 W/m2
12:00 47.1 °F /  8.4 °C 39.7 °F /  4.3 °C 30.28in /  1025.3hPa North 7.0mph /  11.3km/h 18.0mph /  29km/h 75% 0.00in /  0mm 258 W/m2
12:10 47.3 °F /  8.5 °C 39.0 °F /  3.9 °C 30.28in /  1025.3hPa West 7.0mph /  11.3km/h 18.0mph /  29km/h 73% 0.00in /  0mm 297 W/m2
12:15 47.1 °F /  8.4 °C 38.3 °F /  3.5 °C 30.28in /  1025.3hPa NW 9.0mph /  14.5km/h 18.0mph /  29km/h 71% 0.00in /  0mm 304 W/m2
12:25 47.7 °F /  8.7 °C 39.0 °F /  3.9 °C 30.28in /  1025.3hPa North 9.0mph /  14.5km/h 15.0mph /  24.1km/h 72% 0.00in /  0mm 311 W/m2
12:30 47.5 °F /  8.6 °C 38.8 °F /  3.8 °C 30.27in /  1024.9hPa WNW 6.0mph /  9.7km/h 15.0mph /  24.1km/h 72% 0.00in /  0mm 318 W/m2
12:35 47.7 °F /  8.7 °C 38.8 °F /  3.8 °C 30.27in /  1024.9hPa NW 5.0mph /  8km/h 14.0mph /  22.5km/h 71% 0.00in /  0mm 316 W/m2
12:40 47.8 °F /  8.8 °C 39.4 °F /  4.1 °C 30.27in /  1024.9hPa WNW 7.0mph /  11.3km/h 14.0mph /  22.5km/h 72% 0.00in /  0mm 318 W/m2
12:45 48.2 °F /  9 °C 39.2 °F /  4 °C 30.27in /  1024.9hPa NW 6.0mph /  9.7km/h 14.0mph /  22.5km/h 71% 0.00in /  0mm 323 W/m2
12:50 48.4 °F /  9.1 °C 38.7 °F /  3.7 °C 30.27in /  1024.9hPa WNW 12.0mph /  19.3km/h 18.0mph /  29km/h 69% 0.00in /  0mm 323 W/m2
12:55 48.6 °F /  9.2 °C 38.8 °F /  3.8 °C 30.27in /  1024.9hPa NNE 16.0mph /  25.7km/h 18.0mph /  29km/h 69% 0.00in /  0mm 323 W/m2
13:00 48.6 °F /  9.2 °C 38.8 °F /  3.8 °C 30.27in /  1024.9hPa WNW 3.0mph /  4.8km/h 17.0mph /  27.4km/h 69% 0.00in /  0mm 322 W/m2
13:05 48.0 °F /  8.9 °C 37.9 °F /  3.3 °C 30.27in /  1024.9hPa NNW 7.0mph /  11.3km/h 20.0mph /  32.2km/h 68% 0.00in /  0mm 323 W/m2
13:10 48.0 °F /  8.9 °C 38.5 °F /  3.6 °C 30.27in /  1024.9hPa NW 8.0mph /  12.9km/h 20.0mph /  32.2km/h 69% 0.00in /  0mm 322 W/m2
13:15 48.4 °F /  9.1 °C 37.8 °F /  3.2 °C 30.27in /  1024.9hPa NW 7.0mph /  11.3km/h 17.0mph /  27.4km/h 67% 0.00in /  0mm 320 W/m2
13:20 48.4 °F /  9.1 °C 37.8 °F /  3.2 °C 30.26in /  1024.6hPa NW 4.0mph /  6.4km/h 17.0mph /  27.4km/h 67% 0.00in /  0mm 320 W/m2
13:25 48.6 °F /  9.2 °C 38.5 °F /  3.6 °C 30.26in /  1024.6hPa WNW 3.0mph /  4.8km/h 15.0mph /  24.1km/h 68% 0.00in /  0mm 316 W/m2
13:35 48.7 °F /  9.3 °C 38.3 °F /  3.5 °C 30.26in /  1024.6hPa NW 8.0mph /  12.9km/h 17.0mph /  27.4km/h 67% 0.00in /  0mm 311 W/m2
13:45 48.6 °F /  9.2 °C 38.5 °F /  3.6 °C 30.26in /  1024.6hPa WNW 4.0mph /  6.4km/h 16.0mph /  25.7km/h 68% 0.00in /  0mm 308 W/m2
13:55 48.7 °F /  9.3 °C 39.4 °F /  4.1 °C 30.26in /  1024.6hPa NW 8.0mph /  12.9km/h 15.0mph /  24.1km/h 70% 0.00in /  0mm 294 W/m2
14:00 48.9 °F /  9.4 °C 39.9 °F /  4.4 °C 30.26in /  1024.6hPa NNW 11.0mph /  17.7km/h 16.0mph /  25.7km/h 71% 0.00in /  0mm 295 W/m2
14:05 48.6 °F /  9.2 °C 37.8 °F /  3.2 °C 30.25in /  1024.3hPa NNW 9.0mph /  14.5km/h 16.0mph /  25.7km/h 66% 0.00in /  0mm 294 W/m2
14:10 48.4 °F /  9.1 °C 36.7 °F /  2.6 °C 30.26in /  1024.6hPa NW 7.0mph /  11.3km/h 19.0mph /  30.6km/h 64% 0.00in /  0mm 283 W/m2
14:20 48.4 °F /  9.1 °C 36.3 °F /  2.4 °C 30.26in /  1024.6hPa NW 9.0mph /  14.5km/h 17.0mph /  27.4km/h 63% 0.00in /  0mm 274 W/m2
14:30 48.4 °F /  9.1 °C 36.3 °F /  2.4 °C 30.26in /  1024.6hPa West 9.0mph /  14.5km/h 16.0mph /  25.7km/h 63% 0.00in /  0mm 262 W/m2
14:35 48.4 °F /  9.1 °C 36.3 °F /  2.4 °C 30.25in /  1024.3hPa NW 6.0mph /  9.7km/h 17.0mph /  27.4km/h 63% 0.00in /  0mm 262 W/m2
14:40 48.4 °F /  9.1 °C 36.3 °F /  2.4 °C 30.25in /  1024.3hPa WNW 9.0mph /  14.5km/h 19.0mph /  30.6km/h 63% 0.00in /  0mm 339 W/m2
14:50 50.4 °F /  10.2 °C 37.8 °F /  3.2 °C 30.26in /  1024.6hPa West 7.0mph /  11.3km/h 16.0mph /  25.7km/h 62% 0.00in /  0mm 334 W/m2
15:00 49.5 °F /  9.7 °C 38.5 °F /  3.6 °C 30.26in /  1024.6hPa WNW 4.0mph /  6.4km/h 16.0mph /  25.7km/h 66% 0.00in /  0mm 185 W/m2
15:05 49.5 °F /  9.7 °C 38.1 °F /  3.4 °C 30.26in /  1024.6hPa NNW 10.0mph /  16.1km/h 15.0mph /  24.1km/h 65% 0.00in /  0mm 311 W/m2
15:10 48.7 °F /  9.3 °C 37.2 °F /  2.9 °C 30.26in /  1024.6hPa WNW 9.0mph /  14.5km/h 17.0mph /  27.4km/h 64% 0.00in /  0mm 255 W/m2
15:15 48.4 °F /  9.1 °C 36.3 °F /  2.4 °C 30.25in /  1024.3hPa NW 9.0mph /  14.5km/h 17.0mph /  27.4km/h 63% 0.00in /  0mm 216 W/m2
15:20 47.3 °F /  8.5 °C 36.1 °F /  2.3 °C 30.26in /  1024.6hPa WNW 5.0mph /  8km/h 15.0mph /  24.1km/h 65% 0.00in /  0mm 183 W/m2
15:25 47.1 °F /  8.4 °C 36.0 °F /  2.2 °C 30.25in /  1024.3hPa NW 9.0mph /  14.5km/h 12.0mph /  19.3km/h 65% 0.00in /  0mm 169 W/m2
15:35 46.8 °F /  8.2 °C 36.0 °F /  2.2 °C 30.26in /  1024.6hPa WNW 8.0mph /  12.9km/h 19.0mph /  30.6km/h 66% 0.00in /  0mm 91 W/m2
15:40 46.6 °F /  8.1 °C 35.8 °F /  2.1 °C 30.26in /  1024.6hPa WNW 8.0mph /  12.9km/h 14.0mph /  22.5km/h 66% 0.00in /  0mm 74 W/m2
15:45 46.2 °F /  7.9 °C 36.0 °F /  2.2 °C 30.26in /  1024.6hPa NNW 7.0mph /  11.3km/h 18.0mph /  29km/h 67% 0.00in /  0mm 51 W/m2
15:50 46.0 °F /  7.8 °C 35.8 °F /  2.1 °C 30.26in /  1024.6hPa West 7.0mph /  11.3km/h 18.0mph /  29km/h 67% 0.00in /  0mm 51 W/m2
15:55 46.0 °F /  7.8 °C 35.4 °F /  1.9 °C 30.26in /  1024.6hPa NW 7.0mph /  11.3km/h 16.0mph /  25.7km/h 66% 0.00in /  0mm 62 W/m2
16:00 46.0 °F /  7.8 °C 35.2 °F /  1.8 °C 30.26in /  1024.6hPa North 9.0mph /  14.5km/h 19.0mph /  30.6km/h 66% 0.00in /  0mm 74 W/m2
16:10 45.7 °F /  7.6 °C 35.6 °F /  2 °C 30.26in /  1024.6hPa NW 11.0mph /  17.7km/h 16.0mph /  25.7km/h 68% 0.00in /  0mm 37 W/m2
16:15 45.3 °F /  7.4 °C 35.8 °F /  2.1 °C 30.26in /  1024.6hPa NW 4.0mph /  6.4km/h 16.0mph /  25.7km/h 69% 0.00in /  0mm 44 W/m2
16:20 45.1 °F /  7.3 °C 36.0 °F /  2.2 °C 30.26in /  1024.6hPa NW 7.0mph /  11.3km/h 13.0mph /  20.9km/h 70% 0.00in /  0mm 30 W/m2
16:25 44.8 °F /  7.1 °C 36.0 °F /  2.2 °C 30.26in /  1024.6hPa NNW 6.0mph /  9.7km/h 14.0mph /  22.5km/h 71% 0.00in /  0mm 28 W/m2
16:35 44.4 °F /  6.9 °C 35.6 °F /  2 °C 30.26in /  1024.6hPa North 1.0mph /  1.6km/h 13.0mph /  20.9km/h 71% 0.00in /  0mm 19 W/m2
16:45 43.9 °F /  6.6 °C 35.8 °F /  2.1 °C 30.26in /  1024.6hPa NW 7.0mph /  11.3km/h 13.0mph /  20.9km/h 73% 0.00in /  0mm 14 W/m2
16:50 44.1 °F /  6.7 °C 36.0 °F /  2.2 °C 30.26in /  1024.6hPa NNW 5.0mph /  8km/h 12.0mph /  19.3km/h 73% 0.00in /  0mm 12 W/m2
16:55 43.9 °F /  6.6 °C 35.8 °F /  2.1 °C 30.26in /  1024.6hPa WNW 6.0mph /  9.7km/h 11.0mph /  17.7km/h 73% 0.00in /  0mm 9 W/m2
17:05 44.1 °F /  6.7 °C 35.6 °F /  2 °C 30.26in /  1024.6hPa West 5.0mph /  8km/h 12.0mph /  19.3km/h 72% 0.00in /  0mm 7 W/m2
17:20 43.7 °F /  6.5 °C 35.2 °F /  1.8 °C 30.26in /  1024.6hPa NNW 4.0mph /  6.4km/h 9.0mph /  14.5km/h 72% 0.00in /  0mm 0 W/m2
17:25 43.3 °F /  6.3 °C 35.1 °F /  1.7 °C 30.27in /  1024.9hPa WNW 3.0mph /  4.8km/h 10.0mph /  16.1km/h 72% 0.00in /  0mm 0 W/m2
17:35 43.3 °F /  6.3 °C 35.6 °F /  2 °C 30.27in /  1024.9hPa NW 5.0mph /  8km/h 11.0mph /  17.7km/h 74% 0.00in /  0mm 0 W/m2
17:40 43.2 °F /  6.2 °C 35.4 °F /  1.9 °C 30.27in /  1024.9hPa NW 5.0mph /  8km/h 10.0mph /  16.1km/h 74% 0.00in /  0mm 0 W/m2
17:50 43.3 °F /  6.3 °C 36.0 °F /  2.2 °C 30.27in /  1024.9hPa WNW 3.0mph /  4.8km/h 9.0mph /  14.5km/h 75% 0.00in /  0mm 0 W/m2
17:55 43.3 °F /  6.3 °C 36.0 °F /  2.2 °C 30.27in /  1024.9hPa NW 6.0mph /  9.7km/h 9.0mph /  14.5km/h 75% 0.00in /  0mm 0 W/m2
18:00 43.7 °F /  6.5 °C 36.3 °F /  2.4 °C 30.27in /  1024.9hPa NW 5.0mph /  8km/h 9.0mph /  14.5km/h 75% 0.00in /  0mm 0 W/m2
18:05 43.5 °F /  6.4 °C 36.1 °F /  2.3 °C 30.27in /  1024.9hPa WNW 5.0mph /  8km/h 13.0mph /  20.9km/h 75% 0.00in /  0mm 0 W/m2
18:15 43.2 °F /  6.2 °C 36.5 °F /  2.5 °C 30.27in /  1024.9hPa WNW 4.0mph /  6.4km/h 11.0mph /  17.7km/h 77% 0.00in /  0mm 0 W/m2
18:20 43.0 °F /  6.1 °C 36.1 °F /  2.3 °C 30.27in /  1024.9hPa NW 4.0mph /  6.4km/h 13.0mph /  20.9km/h 77% 0.00in /  0mm 0 W/m2
18:30 42.4 °F /  5.8 °C 35.8 °F /  2.1 °C 30.28in /  1025.3hPa NW 6.0mph /  9.7km/h 11.0mph /  17.7km/h 77% 0.00in /  0mm 0 W/m2
18:35 42.4 °F /  5.8 °C 35.8 °F /  2.1 °C 30.28in /  1025.3hPa NW 4.0mph /  6.4km/h 13.0mph /  20.9km/h 77% 0.00in /  0mm 0 W/m2
18:40 42.1 °F /  5.6 °C 35.8 °F /  2.1 °C 30.28in /  1025.3hPa NNW 5.0mph /  8km/h 13.0mph /  20.9km/h 78% 0.00in /  0mm 0 W/m2
18:45 42.3 °F /  5.7 °C 36.0 °F /  2.2 °C 30.28in /  1025.3hPa NW 2.0mph /  3.2km/h 11.0mph /  17.7km/h 78% 0.00in /  0mm 0 W/m2
18:55 42.4 °F /  5.8 °C 35.8 °F /  2.1 °C 30.28in /  1025.3hPa WNW 9.0mph /  14.5km/h 12.0mph /  19.3km/h 77% 0.00in /  0mm 0 W/m2
19:00 42.3 °F /  5.7 °C 35.6 °F /  2 °C 30.28in /  1025.3hPa NNW 6.0mph /  9.7km/h 11.0mph /  17.7km/h 77% 0.00in /  0mm 0 W/m2
19:05 42.3 °F /  5.7 °C 35.2 °F /  1.8 °C 30.29in /  1025.6hPa WNW 12.0mph /  19.3km/h 14.0mph /  22.5km/h 76% 0.00in /  0mm 0 W/m2
19:10 41.9 °F /  5.5 °C 34.9 °F /  1.6 °C 30.28in /  1025.3hPa WNW 3.0mph /  4.8km/h 14.0mph /  22.5km/h 76% 0.00in /  0mm 0 W/m2
19:25 41.7 °F /  5.4 °C 35.1 °F /  1.7 °C 30.28in /  1025.3hPa NW 6.0mph /  9.7km/h 10.0mph /  16.1km/h 77% 0.00in /  0mm 0 W/m2
19:35 41.9 °F /  5.5 °C 35.6 °F /  2 °C 30.29in /  1025.6hPa WNW 7.0mph /  11.3km/h 12.0mph /  19.3km/h 78% 0.00in /  0mm 0 W/m2
19:45 42.1 °F /  5.6 °C 35.6 °F /  2 °C 30.29in /  1025.6hPa NW 2.0mph /  3.2km/h 12.0mph /  19.3km/h 78% 0.00in /  0mm 0 W/m2
19:50 41.7 °F /  5.4 °C 35.4 °F /  1.9 °C 30.29in /  1025.6hPa WNW 7.0mph /  11.3km/h 10.0mph /  16.1km/h 78% 0.00in /  0mm 0 W/m2
20:00 41.5 °F /  5.3 °C 35.2 °F /  1.8 °C 30.30in /  1026hPa NW 4.0mph /  6.4km/h 11.0mph /  17.7km/h 78% 0.00in /  0mm 0 W/m2
20:05 41.5 °F /  5.3 °C 35.4 °F /  1.9 °C 30.30in /  1026hPa NW 7.0mph /  11.3km/h 11.0mph /  17.7km/h 79% 0.00in /  0mm 0 W/m2
20:20 41.0 °F /  5 °C 35.2 °F /  1.8 °C 30.30in /  1026hPa NW 3.0mph /  4.8km/h 10.0mph /  16.1km/h 80% 0.00in /  0mm 0 W/m2
20:25 41.0 °F /  5 °C 35.6 °F /  2 °C 30.30in /  1026hPa WNW 4.0mph /  6.4km/h 11.0mph /  17.7km/h 81% 0.00in /  0mm 0 W/m2
20:30 41.4 °F /  5.2 °C 35.6 °F /  2 °C 30.30in /  1026hPa NW 5.0mph /  8km/h 11.0mph /  17.7km/h 80% 0.00in /  0mm 0 W/m2
20:35 41.2 °F /  5.1 °C 35.4 °F /  1.9 °C 30.30in /  1026hPa NW 4.0mph /  6.4km/h 9.0mph /  14.5km/h 80% 0.00in /  0mm 0 W/m2
20:40 40.3 °F /  4.6 °C 34.9 °F /  1.6 °C 30.30in /  1026hPa NW 6.0mph /  9.7km/h 7.0mph /  11.3km/h 81% 0.00in /  0mm 0 W/m2
20:50 39.6 °F /  4.2 °C 34.9 °F /  1.6 °C 30.29in /  1025.6hPa NW 3.0mph /  4.8km/h 10.0mph /  16.1km/h 83% 0.00in /  0mm 0 W/m2
20:55 39.4 °F /  4.1 °C 34.9 °F /  1.6 °C 30.29in /  1025.6hPa WNW 1.0mph /  1.6km/h 8.0mph /  12.9km/h 84% 0.00in /  0mm 0 W/m2
21:00 39.6 °F /  4.2 °C 35.1 °F /  1.7 °C 30.30in /  1026hPa WNW 3.0mph /  4.8km/h 11.0mph /  17.7km/h 84% 0.00in /  0mm 0 W/m2
21:05 39.7 °F /  4.3 °C 35.4 °F /  1.9 °C 30.30in /  1026hPa Calm   11.0mph /  17.7km/h 84% 0.00in /  0mm 0 W/m2
21:15 39.6 °F /  4.2 °C 35.2 °F /  1.8 °C 30.30in /  1026hPa West 4.0mph /  6.4km/h 10.0mph /  16.1km/h 84% 0.00in /  0mm 0 W/m2
21:20 39.4 °F /  4.1 °C 34.9 °F /  1.6 °C 30.30in /  1026hPa NNW 5.0mph /  8km/h 10.0mph /  16.1km/h 84% 0.00in /  0mm 0 W/m2
21:30 39.0 °F /  3.9 °C 34.7 °F /  1.5 °C 30.30in /  1026hPa West 4.0mph /  6.4km/h 9.0mph /  14.5km/h 84% 0.00in /  0mm 0 W/m2
21:40 39.4 °F /  4.1 °C 35.2 °F /  1.8 °C 30.30in /  1026hPa NNW 5.0mph /  8km/h 8.0mph /  12.9km/h 85% 0.00in /  0mm 0 W/m2
21:45 39.6 °F /  4.2 °C 35.1 °F /  1.7 °C 30.30in /  1026hPa NW 4.0mph /  6.4km/h 10.0mph /  16.1km/h 84% 0.00in /  0mm 0 W/m2
21:50 39.4 °F /  4.1 °C 34.9 °F /  1.6 °C 30.30in /  1026hPa North 6.0mph /  9.7km/h 10.0mph /  16.1km/h 84% 0.00in /  0mm 0 W/m2
21:55 38.8 °F /  3.8 °C 34.7 °F /  1.5 °C 30.30in /  1026hPa NW 1.0mph /  1.6km/h 8.0mph /  12.9km/h 85% 0.00in /  0mm 0 W/m2
22:00 38.7 °F /  3.7 °C 34.5 °F /  1.4 °C 30.30in /  1026hPa NW 2.0mph /  3.2km/h 6.0mph /  9.7km/h 85% 0.00in /  0mm 0 W/m2
22:05 37.9 °F /  3.3 °C 34.2 °F /  1.2 °C 30.30in /  1026hPa Calm   5.0mph /  8km/h 86% 0.00in /  0mm 0 W/m2
22:10 37.6 °F /  3.1 °C 34.0 °F /  1.1 °C 30.30in /  1026hPa NNW 1.0mph /  1.6km/h 5.0mph /  8km/h 87% 0.00in /  0mm 0 W/m2
22:20 36.7 °F /  2.6 °C 33.4 °F /  0.8 °C 30.31in /  1026.3hPa Calm   3.0mph /  4.8km/h 88% 0.00in /  0mm 0 W/m2
22:25 36.9 °F /  2.7 °C 33.8 °F /  1 °C 30.30in /  1026hPa Calm   4.0mph /  6.4km/h 89% 0.00in /  0mm 0 W/m2
22:35 36.1 °F /  2.3 °C 33.3 °F /  0.7 °C 30.30in /  1026hPa NW 2.0mph /  3.2km/h 5.0mph /  8km/h 89% 0.00in /  0mm 0 W/m2
22:40 36.0 °F /  2.2 °C 32.9 °F /  0.5 °C 30.31in /  1026.3hPa WNW 1.0mph /  1.6km/h 5.0mph /  8km/h 89% 0.00in /  0mm 0 W/m2
22:45 36.0 °F /  2.2 °C 33.3 °F /  0.7 °C 30.31in /  1026.3hPa NW 3.0mph /  4.8km/h 5.0mph /  8km/h 90% 0.00in /  0mm 0 W/m2
22:50 36.1 °F /  2.3 °C 33.8 °F /  1 °C 30.31in /  1026.3hPa WNW 1.0mph /  1.6km/h 5.0mph /  8km/h 91% 0.00in /  0mm 0 W/m2
22:55 36.1 °F /  2.3 °C 33.8 °F /  1 °C 30.31in /  1026.3hPa Calm   5.0mph /  8km/h 91% 0.00in /  0mm 0 W/m2
23:00 36.3 °F /  2.4 °C 34.0 °F /  1.1 °C 30.30in /  1026hPa WNW 3.0mph /  4.8km/h 8.0mph /  12.9km/h 91% 0.00in /  0mm 0 W/m2
23:05 36.9 °F /  2.7 °C 34.2 °F /  1.2 °C 30.30in /  1026hPa NW 4.0mph /  6.4km/h 8.0mph /  12.9km/h 90% 0.00in /  0mm 0 W/m2
23:10 37.2 °F /  2.9 °C 34.7 °F /  1.5 °C 30.30in /  1026hPa NW 5.0mph /  8km/h 12.0mph /  19.3km/h 90% 0.00in /  0mm 0 W/m2
23:15 37.9 °F /  3.3 °C 34.9 °F /  1.6 °C 30.30in /  1026hPa NNW 4.0mph /  6.4km/h 12.0mph /  19.3km/h 89% 0.00in /  0mm 0 W/m2
23:20 37.9 °F /  3.3 °C 34.7 °F /  1.5 °C 30.30in /  1026hPa NNW 3.0mph /  4.8km/h 10.0mph /  16.1km/h 88% 0.00in /  0mm 0 W/m2
23:30 37.8 °F /  3.2 °C 34.2 °F /  1.2 °C 30.30in /  1026hPa WNW 4.0mph /  6.4km/h 7.0mph /  11.3km/h 87% 0.00in /  0mm 0 W/m2
23:35 37.4 °F /  3 °C 33.8 °F /  1 °C 30.30in /  1026hPa North 3.0mph /  4.8km/h 8.0mph /  12.9km/h 87% 0.00in /  0mm 0 W/m2
23:50 37.0 °F /  2.8 °C 33.8 °F /  1 °C 30.30in /  1026hPa NNW 4.0mph /  6.4km/h 8.0mph /  12.9km/h 88% 0.00in /  0mm 0 W/m2
23:55 36.9 °F /  2.7 °C 33.6 °F /  0.9 °C 30.30in /  1026hPa NW 3.0mph /  4.8km/h 8.0mph /  12.9km/h 88% 0.00in /  0mm 0 W/m2